sensor_id;sensor_type;location;lat;lon;timestamp;temperature;humidity
21033;DHT22;10675;47.976;7.824;2022-12-29T00:01:23;14.40;74.60
21033;DHT22;10675;47.976;7.824;2022-12-29T00:03:49;14.40;74.40
21033;DHT22;10675;47.976;7.824;2022-12-29T00:06:14;14.40;74.70
21033;DHT22;10675;47.976;7.824;2022-12-29T00:08:40;14.30;75.00
21033;DHT22;10675;47.976;7.824;2022-12-29T00:11:13;14.30;74.90
21033;DHT22;10675;47.976;7.824;2022-12-29T00:13:39;14.40;74.80
21033;DHT22;10675;47.976;7.824;2022-12-29T00:16:23;14.30;75.40
21033;DHT22;10675;47.976;7.824;2022-12-29T00:18:49;14.40;74.30
21033;DHT22;10675;47.976;7.824;2022-12-29T00:21:17;14.40;74.00
21033;DHT22;10675;47.976;7.824;2022-12-29T00:24:02;14.40;73.70
21033;DHT22;10675;47.976;7.824;2022-12-29T00:26:33;14.50;73.30
21033;DHT22;10675;47.976;7.824;2022-12-29T00:29:18;14.40;73.60
21033;DHT22;10675;47.976;7.824;2022-12-29T00:32:02;14.50;72.90
21033;DHT22;10675;47.976;7.824;2022-12-29T00:34:46;14.50;72.00
21033;DHT22;10675;47.976;7.824;2022-12-29T00:37:30;14.50;72.60
21033;DHT22;10675;47.976;7.824;2022-12-29T00:40:14;14.50;71.90
21033;DHT22;10675;47.976;7.824;2022-12-29T00:42:58;14.60;71.20
21033;DHT22;10675;47.976;7.824;2022-12-29T00:45:42;14.60;70.80
21033;DHT22;10675;47.976;7.824;2022-12-29T00:48:07;14.70;71.30
21033;DHT22;10675;47.976;7.824;2022-12-29T00:50:33;14.50;71.10
21033;DHT22;10675;47.976;7.824;2022-12-29T00:52:58;14.50;71.20
21033;DHT22;10675;47.976;7.824;2022-12-29T00:55:24;14.60;70.80
21033;DHT22;10675;47.976;7.824;2022-12-29T00:57:49;14.60;70.00
21033;DHT22;10675;47.976;7.824;2022-12-29T01:00:15;14.60;70.50
21033;DHT22;10675;47.976;7.824;2022-12-29T01:02:41;14.50;70.60
21033;DHT22;10675;47.976;7.824;2022-12-29T01:05:06;14.60;70.30
21033;DHT22;10675;47.976;7.824;2022-12-29T01:07:32;14.60;70.60
21033;DHT22;10675;47.976;7.824;2022-12-29T01:09:57;14.50;70.30
21033;DHT22;10675;47.976;7.824;2022-12-29T01:12:35;14.50;71.20
21033;DHT22;10675;47.976;7.824;2022-12-29T01:15:08;14.40;71.30
21033;DHT22;10675;47.976;7.824;2022-12-29T01:17:34;14.40;71.70
21033;DHT22;10675;47.976;7.824;2022-12-29T01:20:01;14.30;71.50
21033;DHT22;10675;47.976;7.824;2022-12-29T01:22:26;14.30;71.60
21033;DHT22;10675;47.976;7.824;2022-12-29T01:24:52;14.20;72.50
21033;DHT22;10675;47.976;7.824;2022-12-29T01:27:17;14.20;72.40
21033;DHT22;10675;47.976;7.824;2022-12-29T01:29:43;14.10;72.60
21033;DHT22;10675;47.976;7.824;2022-12-29T01:32:08;14.00;74.00
21033;DHT22;10675;47.976;7.824;2022-12-29T01:34:34;13.90;75.00
21033;DHT22;10675;47.976;7.824;2022-12-29T01:36:59;13.80;75.60
21033;DHT22;10675;47.976;7.824;2022-12-29T01:39:25;13.70;75.50
21033;DHT22;10675;47.976;7.824;2022-12-29T01:41:50;13.70;75.40
21033;DHT22;10675;47.976;7.824;2022-12-29T01:44:46;13.60;76.40
21033;DHT22;10675;47.976;7.824;2022-12-29T01:47:15;13.50;76.50
21033;DHT22;10675;47.976;7.824;2022-12-29T01:49:43;13.50;77.10
21033;DHT22;10675;47.976;7.824;2022-12-29T01:52:09;13.60;76.10
21033;DHT22;10675;47.976;7.824;2022-12-29T01:54:43;13.60;75.60
21033;DHT22;10675;47.976;7.824;2022-12-29T01:57:15;13.60;76.10
21033;DHT22;10675;47.976;7.824;2022-12-29T01:59:50;13.50;76.60
21033;DHT22;10675;47.976;7.824;2022-12-29T02:02:18;13.70;75.20
21033;DHT22;10675;47.976;7.824;2022-12-29T02:04:44;13.60;75.90
21033;DHT22;10675;47.976;7.824;2022-12-29T02:07:17;13.60;75.90
21033;DHT22;10675;47.976;7.824;2022-12-29T02:09:49;13.50;76.00
21033;DHT22;10675;47.976;7.824;2022-12-29T02:12:17;13.60;76.60
21033;DHT22;10675;47.976;7.824;2022-12-29T02:14:43;13.50;76.40
21033;DHT22;10675;47.976;7.824;2022-12-29T02:39:07;13.40;78.70
21033;DHT22;10675;47.976;7.824;2022-12-29T02:44:34;13.30;79.40
21033;DHT22;10675;47.976;7.824;2022-12-29T02:49:40;13.40;79.40
21033;DHT22;10675;47.976;7.824;2022-12-29T02:52:16;13.40;79.60
21033;DHT22;10675;47.976;7.824;2022-12-29T02:54:43;13.40;79.60
21033;DHT22;10675;47.976;7.824;2022-12-29T02:59:45;13.30;80.40
21033;DHT22;10675;47.976;7.824;2022-12-29T03:08:04;13.30;81.50
21033;DHT22;10675;47.976;7.824;2022-12-29T03:21:43;13.30;80.90
21033;DHT22;10675;47.976;7.824;2022-12-29T03:24:35;13.20;81.10
21033;DHT22;10675;47.976;7.824;2022-12-29T03:27:04;13.20;81.60
21033;DHT22;10675;47.976;7.824;2022-12-29T03:29:34;13.10;82.30
21033;DHT22;10675;47.976;7.824;2022-12-29T03:32:01;13.10;82.60
21033;DHT22;10675;47.976;7.824;2022-12-29T03:34:28;13.10;82.90
21033;DHT22;10675;47.976;7.824;2022-12-29T03:37:03;13.20;82.70
21033;DHT22;10675;47.976;7.824;2022-12-29T03:39:30;13.10;82.90
21033;DHT22;10675;47.976;7.824;2022-12-29T03:42:02;13.10;83.10
21033;DHT22;10675;47.976;7.824;2022-12-29T03:44:39;13.20;83.00
21033;DHT22;10675;47.976;7.824;2022-12-29T03:47:06;13.20;82.50
21033;DHT22;10675;47.976;7.824;2022-12-29T03:49:32;13.20;82.20
21033;DHT22;10675;47.976;7.824;2022-12-29T03:51:58;13.20;82.60
21033;DHT22;10675;47.976;7.824;2022-12-29T03:54:24;13.20;82.60
21033;DHT22;10675;47.976;7.824;2022-12-29T03:56:50;13.20;83.30
21033;DHT22;10675;47.976;7.824;2022-12-29T03:59:16;13.20;82.80
21033;DHT22;10675;47.976;7.824;2022-12-29T04:01:41;13.30;82.60
21033;DHT22;10675;47.976;7.824;2022-12-29T04:04:07;13.30;82.80
21033;DHT22;10675;47.976;7.824;2022-12-29T04:06:32;13.30;82.50
21033;DHT22;10675;47.976;7.824;2022-12-29T04:08:58;13.20;83.10
21033;DHT22;10675;47.976;7.824;2022-12-29T04:11:24;13.20;83.00
21033;DHT22;10675;47.976;7.824;2022-12-29T04:13:49;13.30;82.60
21033;DHT22;10675;47.976;7.824;2022-12-29T04:16:15;13.20;83.00
21033;DHT22;10675;47.976;7.824;2022-12-29T04:18:40;13.20;83.10
21033;DHT22;10675;47.976;7.824;2022-12-29T04:21:06;14.10;83.50
21033;DHT22;10675;47.976;7.824;2022-12-29T04:23:35;13.20;83.50
21033;DHT22;10675;47.976;7.824;2022-12-29T04:26:02;13.20;83.50
21033;DHT22;10675;47.976;7.824;2022-12-29T04:28:27;13.20;83.40
21033;DHT22;10675;47.976;7.824;2022-12-29T04:30:53;13.20;83.50
21033;DHT22;10675;47.976;7.824;2022-12-29T04:33:19;13.20;83.50
21033;DHT22;10675;47.976;7.824;2022-12-29T04:35:45;13.20;83.60
21033;DHT22;10675;47.976;7.824;2022-12-29T04:38:11;13.10;83.90
21033;DHT22;10675;47.976;7.824;2022-12-29T04:40:42;13.10;83.70
21033;DHT22;10675;47.976;7.824;2022-12-29T04:43:08;13.10;83.60
21033;DHT22;10675;47.976;7.824;2022-12-29T04:45:34;13.10;83.40
21033;DHT22;10675;47.976;7.824;2022-12-29T04:47:59;13.20;83.60
21033;DHT22;10675;47.976;7.824;2022-12-29T04:50:25;13.20;83.20
21033;DHT22;10675;47.976;7.824;2022-12-29T04:52:50;13.20;83.20
21033;DHT22;10675;47.976;7.824;2022-12-29T04:55:16;13.30;83.80
21033;DHT22;10675;47.976;7.824;2022-12-29T04:57:41;13.30;82.40
21033;DHT22;10675;47.976;7.824;2022-12-29T05:00:08;13.40;82.30
21033;DHT22;10675;47.976;7.824;2022-12-29T05:02:37;13.40;82.00
21033;DHT22;10675;47.976;7.824;2022-12-29T05:05:03;14.00;81.80
21033;DHT22;10675;47.976;7.824;2022-12-29T05:07:29;13.70;81.20
21033;DHT22;10675;47.976;7.824;2022-12-29T05:09:54;13.70;81.10
21033;DHT22;10675;47.976;7.824;2022-12-29T05:12:20;13.80;80.80
21033;DHT22;10675;47.976;7.824;2022-12-29T05:14:45;13.80;80.50
21033;DHT22;10675;47.976;7.824;2022-12-29T05:17:11;13.90;80.00
21033;DHT22;10675;47.976;7.824;2022-12-29T05:19:37;13.90;80.10
21033;DHT22;10675;47.976;7.824;2022-12-29T05:22:03;13.90;79.70
21033;DHT22;10675;47.976;7.824;2022-12-29T05:24:29;14.00;79.30
21033;DHT22;10675;47.976;7.824;2022-12-29T05:26:54;14.10;79.40
21033;DHT22;10675;47.976;7.824;2022-12-29T05:29:20;14.10;78.90
21033;DHT22;10675;47.976;7.824;2022-12-29T05:31:45;14.10;78.80
21033;DHT22;10675;47.976;7.824;2022-12-29T05:34:11;14.10;78.60
21033;DHT22;10675;47.976;7.824;2022-12-29T05:36:36;14.30;77.90
21033;DHT22;10675;47.976;7.824;2022-12-29T05:39:02;14.20;77.90
21033;DHT22;10675;47.976;7.824;2022-12-29T05:41:28;14.30;77.70
21033;DHT22;10675;47.976;7.824;2022-12-29T05:43:53;14.30;77.20
21033;DHT22;10675;47.976;7.824;2022-12-29T05:46:19;14.40;77.40
21033;DHT22;10675;47.976;7.824;2022-12-29T05:48:44;14.40;77.40
21033;DHT22;10675;47.976;7.824;2022-12-29T05:51:10;14.40;77.20
21033;DHT22;10675;47.976;7.824;2022-12-29T05:53:35;14.50;76.80
21033;DHT22;10675;47.976;7.824;2022-12-29T05:56:01;14.40;77.00
21033;DHT22;10675;47.976;7.824;2022-12-29T05:58:26;14.40;77.10
21033;DHT22;10675;47.976;7.824;2022-12-29T06:00:52;14.40;76.60
21033;DHT22;10675;47.976;7.824;2022-12-29T06:03:17;14.50;76.10
21033;DHT22;10675;47.976;7.824;2022-12-29T06:05:47;14.60;75.70
21033;DHT22;10675;47.976;7.824;2022-12-29T06:08:13;14.50;76.40
21033;DHT22;10675;47.976;7.824;2022-12-29T06:10:39;14.50;76.10
21033;DHT22;10675;47.976;7.824;2022-12-29T06:13:05;14.50;76.10
21033;DHT22;10675;47.976;7.824;2022-12-29T06:15:33;14.50;75.50
21033;DHT22;10675;47.976;7.824;2022-12-29T06:17:59;14.40;76.10
21033;DHT22;10675;47.976;7.824;2022-12-29T06:20:25;14.50;75.20
21033;DHT22;10675;47.976;7.824;2022-12-29T06:22:50;14.60;77.30
21033;DHT22;10675;47.976;7.824;2022-12-29T06:25:16;14.70;74.80
21033;DHT22;10675;47.976;7.824;2022-12-29T06:27:42;14.70;75.10
21033;DHT22;10675;47.976;7.824;2022-12-29T06:30:08;14.60;75.30
21033;DHT22;10675;47.976;7.824;2022-12-29T06:32:34;14.70;74.60
21033;DHT22;10675;47.976;7.824;2022-12-29T06:35:00;14.70;74.10
21033;DHT22;10675;47.976;7.824;2022-12-29T06:37:26;14.50;74.40
21033;DHT22;10675;47.976;7.824;2022-12-29T06:39:52;14.40;74.80
21033;DHT22;10675;47.976;7.824;2022-12-29T06:42:17;14.40;74.60
21033;DHT22;10675;47.976;7.824;2022-12-29T06:44:43;14.50;74.00
21033;DHT22;10675;47.976;7.824;2022-12-29T06:47:08;14.50;74.10
21033;DHT22;10675;47.976;7.824;2022-12-29T06:49:34;14.50;74.00
21033;DHT22;10675;47.976;7.824;2022-12-29T06:51:59;14.60;74.30
21033;DHT22;10675;47.976;7.824;2022-12-29T06:54:26;14.60;74.00
21033;DHT22;10675;47.976;7.824;2022-12-29T06:56:51;14.60;74.50
21033;DHT22;10675;47.976;7.824;2022-12-29T06:59:17;14.60;74.20
21033;DHT22;10675;47.976;7.824;2022-12-29T07:01:42;14.70;73.70
21033;DHT22;10675;47.976;7.824;2022-12-29T07:04:08;14.60;74.30
21033;DHT22;10675;47.976;7.824;2022-12-29T07:06:33;14.60;73.80
21033;DHT22;10675;47.976;7.824;2022-12-29T07:08:59;14.70;73.60
21033;DHT22;10675;47.976;7.824;2022-12-29T07:11:25;14.80;73.10
21033;DHT22;10675;47.976;7.824;2022-12-29T07:13:50;14.80;73.20
21033;DHT22;10675;47.976;7.824;2022-12-29T07:16:16;14.80;73.40
21033;DHT22;10675;47.976;7.824;2022-12-29T07:18:42;14.70;73.20
21033;DHT22;10675;47.976;7.824;2022-12-29T07:21:07;14.80;73.40
21033;DHT22;10675;47.976;7.824;2022-12-29T07:23:33;14.80;73.20
21033;DHT22;10675;47.976;7.824;2022-12-29T07:26:00;14.80;72.80
21033;DHT22;10675;47.976;7.824;2022-12-29T07:28:25;14.90;72.90
21033;DHT22;10675;47.976;7.824;2022-12-29T07:30:51;14.80;73.10
21033;DHT22;10675;47.976;7.824;2022-12-29T07:33:16;14.80;72.90
21033;DHT22;10675;47.976;7.824;2022-12-29T07:35:42;14.80;73.70
21033;DHT22;10675;47.976;7.824;2022-12-29T07:38:07;14.80;73.50
21033;DHT22;10675;47.976;7.824;2022-12-29T07:40:33;14.80;73.80
21033;DHT22;10675;47.976;7.824;2022-12-29T07:42:58;14.80;73.60
21033;DHT22;10675;47.976;7.824;2022-12-29T07:45:24;14.70;73.70
21033;DHT22;10675;47.976;7.824;2022-12-29T07:47:50;14.70;74.00
21033;DHT22;10675;47.976;7.824;2022-12-29T07:50:16;14.60;74.20
21033;DHT22;10675;47.976;7.824;2022-12-29T07:52:41;14.70;74.60
21033;DHT22;10675;47.976;7.824;2022-12-29T07:55:07;14.60;74.90
21033;DHT22;10675;47.976;7.824;2022-12-29T07:57:33;14.60;74.70
21033;DHT22;10675;47.976;7.824;2022-12-29T07:59:58;14.60;74.70
21033;DHT22;10675;47.976;7.824;2022-12-29T08:02:24;14.60;74.60
21033;DHT22;10675;47.976;7.824;2022-12-29T08:04:51;14.60;74.70
21033;DHT22;10675;47.976;7.824;2022-12-29T08:07:17;14.60;75.10
21033;DHT22;10675;47.976;7.824;2022-12-29T08:09:42;14.60;74.90
21033;DHT22;10675;47.976;7.824;2022-12-29T08:12:09;14.60;75.40
21033;DHT22;10675;47.976;7.824;2022-12-29T08:14:35;14.60;75.20
21033;DHT22;10675;47.976;7.824;2022-12-29T08:17:01;14.50;75.70
21033;DHT22;10675;47.976;7.824;2022-12-29T08:19:27;14.50;75.30
21033;DHT22;10675;47.976;7.824;2022-12-29T08:21:53;14.50;75.50
21033;DHT22;10675;47.976;7.824;2022-12-29T08:24:19;14.50;75.70
21033;DHT22;10675;47.976;7.824;2022-12-29T08:26:44;14.50;75.80
21033;DHT22;10675;47.976;7.824;2022-12-29T08:29:10;14.50;76.20
21033;DHT22;10675;47.976;7.824;2022-12-29T08:31:35;14.50;77.10
21033;DHT22;10675;47.976;7.824;2022-12-29T08:34:01;14.40;77.50
21033;DHT22;10675;47.976;7.824;2022-12-29T08:36:28;14.40;77.80
21033;DHT22;10675;47.976;7.824;2022-12-29T08:38:54;14.40;78.90
21033;DHT22;10675;47.976;7.824;2022-12-29T08:41:20;14.30;78.80
21033;DHT22;10675;47.976;7.824;2022-12-29T08:43:47;14.30;79.70
21033;DHT22;10675;47.976;7.824;2022-12-29T08:46:13;14.20;80.10
21033;DHT22;10675;47.976;7.824;2022-12-29T08:48:38;14.20;80.60
21033;DHT22;10675;47.976;7.824;2022-12-29T08:51:04;14.10;80.50
21033;DHT22;10675;47.976;7.824;2022-12-29T08:53:30;14.10;81.20
21033;DHT22;10675;47.976;7.824;2022-12-29T08:55:58;14.10;81.00
21033;DHT22;10675;47.976;7.824;2022-12-29T08:58:24;14.20;80.90
21033;DHT22;10675;47.976;7.824;2022-12-29T09:00:52;14.20;80.70
21033;DHT22;10675;47.976;7.824;2022-12-29T09:03:19;14.20;80.50
21033;DHT22;10675;47.976;7.824;2022-12-29T09:05:48;14.20;80.60
21033;DHT22;10675;47.976;7.824;2022-12-29T09:08:14;14.30;81.00
21033;DHT22;10675;47.976;7.824;2022-12-29T09:10:40;14.20;81.10
21033;DHT22;10675;47.976;7.824;2022-12-29T09:13:05;14.20;81.00
21033;DHT22;10675;47.976;7.824;2022-12-29T09:15:31;14.20;81.60
21033;DHT22;10675;47.976;7.824;2022-12-29T09:17:56;14.20;81.60
21033;DHT22;10675;47.976;7.824;2022-12-29T09:20:22;14.20;81.40
21033;DHT22;10675;47.976;7.824;2022-12-29T09:22:48;14.20;81.60
21033;DHT22;10675;47.976;7.824;2022-12-29T09:25:14;14.20;82.10
21033;DHT22;10675;47.976;7.824;2022-12-29T09:27:39;14.20;82.60
21033;DHT22;10675;47.976;7.824;2022-12-29T09:30:07;14.20;82.60
21033;DHT22;10675;47.976;7.824;2022-12-29T09:32:33;14.20;83.30
21033;DHT22;10675;47.976;7.824;2022-12-29T09:34:59;14.20;82.90
21033;DHT22;10675;47.976;7.824;2022-12-29T09:37:25;14.20;83.30
21033;DHT22;10675;47.976;7.824;2022-12-29T09:39:50;14.10;84.80
21033;DHT22;10675;47.976;7.824;2022-12-29T09:42:25;14.00;85.90
21033;DHT22;10675;47.976;7.824;2022-12-29T09:47:22;13.70;89.90
21033;DHT22;10675;47.976;7.824;2022-12-29T09:49:58;13.60;90.40
21033;DHT22;10675;47.976;7.824;2022-12-29T09:52:32;13.60;90.90
21033;DHT22;10675;47.976;7.824;2022-12-29T09:55:16;13.50;91.20
21033;DHT22;10675;47.976;7.824;2022-12-29T09:58:00;13.60;91.20
21033;DHT22;10675;47.976;7.824;2022-12-29T10:03:32;13.40;91.40
21033;DHT22;10675;47.976;7.824;2022-12-29T10:06:14;13.40;91.40
21033;DHT22;10675;47.976;7.824;2022-12-29T10:22:20;13.30;92.30
21033;DHT22;10675;47.976;7.824;2022-12-29T10:24:49;13.30;92.10
21033;DHT22;10675;47.976;7.824;2022-12-29T10:27:16;13.30;92.40
21033;DHT22;10675;47.976;7.824;2022-12-29T10:29:54;13.30;92.40
21033;DHT22;10675;47.976;7.824;2022-12-29T10:32:43;13.30;92.20
21033;DHT22;10675;47.976;7.824;2022-12-29T10:35:16;13.40;92.50
21033;DHT22;10675;47.976;7.824;2022-12-29T10:40:42;13.40;92.60
21033;DHT22;10675;47.976;7.824;2022-12-29T10:43:29;13.30;92.60
21033;DHT22;10675;47.976;7.824;2022-12-29T10:46:04;13.30;92.90
21033;DHT22;10675;47.976;7.824;2022-12-29T10:48:33;13.30;92.90
21033;DHT22;10675;47.976;7.824;2022-12-29T10:51:01;13.30;93.10
21033;DHT22;10675;47.976;7.824;2022-12-29T10:53:45;13.30;93.30
21033;DHT22;10675;47.976;7.824;2022-12-29T10:56:33;13.30;93.40
21033;DHT22;10675;47.976;7.824;2022-12-29T10:59:23;13.40;93.50
21033;DHT22;10675;47.976;7.824;2022-12-29T11:07:32;13.60;92.60
21033;DHT22;10675;47.976;7.824;2022-12-29T11:10:18;13.70;92.60
21033;DHT22;10675;47.976;7.824;2022-12-29T11:13:00;13.80;92.20
21033;DHT22;10675;47.976;7.824;2022-12-29T11:15:26;14.20;99.90
21033;DHT22;10675;47.976;7.824;2022-12-29T11:17:56;15.10;95.60
21033;DHT22;10675;47.976;7.824;2022-12-29T11:20:30;15.10;93.90
21033;DHT22;10675;47.976;7.824;2022-12-29T11:22:56;15.20;93.20
21033;DHT22;10675;47.976;7.824;2022-12-29T11:25:22;15.40;93.80
21033;DHT22;10675;47.976;7.824;2022-12-29T11:28:15;15.30;93.80
21033;DHT22;10675;47.976;7.824;2022-12-29T11:30:42;15.30;91.40
21033;DHT22;10675;47.976;7.824;2022-12-29T11:33:08;14.40;91.40
21033;DHT22;10675;47.976;7.824;2022-12-29T11:35:40;14.20;91.80
21033;DHT22;10675;47.976;7.824;2022-12-29T11:38:20;14.10;91.90
21033;DHT22;10675;47.976;7.824;2022-12-29T11:40:45;14.10;92.00
21033;DHT22;10675;47.976;7.824;2022-12-29T11:43:40;14.10;92.00
21033;DHT22;10675;47.976;7.824;2022-12-29T11:46:46;14.10;92.30
21033;DHT22;10675;47.976;7.824;2022-12-29T11:49:05;14.10;92.10
21033;DHT22;10675;47.976;7.824;2022-12-29T11:51:45;14.20;92.00
21033;DHT22;10675;47.976;7.824;2022-12-29T11:54:22;14.30;92.20
21033;DHT22;10675;47.976;7.824;2022-12-29T11:56:51;14.20;91.80
21033;DHT22;10675;47.976;7.824;2022-12-29T12:04:56;14.10;92.00
21033;DHT22;10675;47.976;7.824;2022-12-29T12:07:44;14.10;92.20
21033;DHT22;10675;47.976;7.824;2022-12-29T12:10:21;14.20;91.90
21033;DHT22;10675;47.976;7.824;2022-12-29T12:12:56;14.20;92.00
21033;DHT22;10675;47.976;7.824;2022-12-29T12:15:36;14.10;92.20
21033;DHT22;10675;47.976;7.824;2022-12-29T12:18:37;14.20;92.10
21033;DHT22;10675;47.976;7.824;2022-12-29T12:21:22;14.20;92.30
21033;DHT22;10675;47.976;7.824;2022-12-29T12:27:08;13.90;93.20
21033;DHT22;10675;47.976;7.824;2022-12-29T12:29:41;13.80;93.90
21033;DHT22;10675;47.976;7.824;2022-12-29T12:32:14;13.90;94.00
21033;DHT22;10675;47.976;7.824;2022-12-29T12:34:43;13.90;93.90
21033;DHT22;10675;47.976;7.824;2022-12-29T12:42:53;13.90;93.60
21033;DHT22;10675;47.976;7.824;2022-12-29T12:51:13;14.20;93.60
21033;DHT22;10675;47.976;7.824;2022-12-29T13:05:09;14.30;93.10
21033;DHT22;10675;47.976;7.824;2022-12-29T13:11:04;14.30;92.90
21033;DHT22;10675;47.976;7.824;2022-12-29T13:13:39;14.20;93.00
21033;DHT22;10675;47.976;7.824;2022-12-29T13:16:27;14.20;93.20
21033;DHT22;10675;47.976;7.824;2022-12-29T13:25:14;14.20;92.70
21033;DHT22;10675;47.976;7.824;2022-12-29T13:28:18;14.20;92.80
21033;DHT22;10675;47.976;7.824;2022-12-29T13:31:02;13.80;92.90
21033;DHT22;10675;47.976;7.824;2022-12-29T13:33:56;14.20;92.90
21033;DHT22;10675;47.976;7.824;2022-12-29T13:36:32;14.20;92.60
21033;DHT22;10675;47.976;7.824;2022-12-29T13:41:50;14.00;93.10
21033;DHT22;10675;47.976;7.824;2022-12-29T13:44:20;13.90;93.30
21033;DHT22;10675;47.976;7.824;2022-12-29T13:46:48;13.90;93.30
21033;DHT22;10675;47.976;7.824;2022-12-29T13:49:17;13.90;93.40
21033;DHT22;10675;47.976;7.824;2022-12-29T13:51:51;13.90;93.50
21033;DHT22;10675;47.976;7.824;2022-12-29T13:54:30;14.00;93.90
21033;DHT22;10675;47.976;7.824;2022-12-29T13:57:48;13.90;93.90
21033;DHT22;10675;47.976;7.824;2022-12-29T14:00:19;13.80;94.20
21033;DHT22;10675;47.976;7.824;2022-12-29T14:07:50;13.50;95.00
21033;DHT22;10675;47.976;7.824;2022-12-29T14:13:15;13.50;96.00
21033;DHT22;10675;47.976;7.824;2022-12-29T14:15:51;13.50;96.10
21033;DHT22;10675;47.976;7.824;2022-12-29T14:18:23;13.50;96.30
21033;DHT22;10675;47.976;7.824;2022-12-29T14:20:58;13.50;96.30
21033;DHT22;10675;47.976;7.824;2022-12-29T14:23:37;13.50;96.30
21033;DHT22;10675;47.976;7.824;2022-12-29T14:28:32;13.40;96.10
21033;DHT22;10675;47.976;7.824;2022-12-29T14:31:00;13.50;96.10
21033;DHT22;10675;47.976;7.824;2022-12-29T14:33:29;13.50;96.20
21033;DHT22;10675;47.976;7.824;2022-12-29T14:35:55;13.50;96.00
21033;DHT22;10675;47.976;7.824;2022-12-29T14:38:24;13.50;96.00
21033;DHT22;10675;47.976;7.824;2022-12-29T14:40:51;13.50;96.00
21033;DHT22;10675;47.976;7.824;2022-12-29T14:43:23;13.50;96.20
21033;DHT22;10675;47.976;7.824;2022-12-29T14:45:54;13.50;96.00
21033;DHT22;10675;47.976;7.824;2022-12-29T14:51:01;13.50;95.80
21033;DHT22;10675;47.976;7.824;2022-12-29T14:53:50;13.50;95.70
21033;DHT22;10675;47.976;7.824;2022-12-29T14:56:18;13.50;95.80
21033;DHT22;10675;47.976;7.824;2022-12-29T15:03:56;13.50;96.00
21033;DHT22;10675;47.976;7.824;2022-12-29T15:06:24;13.50;95.80
21033;DHT22;10675;47.976;7.824;2022-12-29T15:14:01;13.40;96.30
21033;DHT22;10675;47.976;7.824;2022-12-29T15:16:32;13.40;96.50
21033;DHT22;10675;47.976;7.824;2022-12-29T15:18:59;13.30;96.60
21033;DHT22;10675;47.976;7.824;2022-12-29T15:21:31;13.30;97.10
21033;DHT22;10675;47.976;7.824;2022-12-29T15:23:57;13.20;97.20
21033;DHT22;10675;47.976;7.824;2022-12-29T15:26:23;13.20;97.50
21033;DHT22;10675;47.976;7.824;2022-12-29T15:29:01;13.20;97.90
21033;DHT22;10675;47.976;7.824;2022-12-29T15:31:26;13.10;98.40
21033;DHT22;10675;47.976;7.824;2022-12-29T15:33:54;13.00;99.00
21033;DHT22;10675;47.976;7.824;2022-12-29T15:36:22;12.90;98.70
21033;DHT22;10675;47.976;7.824;2022-12-29T15:38:49;12.90;98.50
21033;DHT22;10675;47.976;7.824;2022-12-29T15:44:09;12.90;98.60
21033;DHT22;10675;47.976;7.824;2022-12-29T15:46:37;12.90;99.10
21033;DHT22;10675;47.976;7.824;2022-12-29T15:49:11;12.90;99.20
21033;DHT22;10675;47.976;7.824;2022-12-29T15:51:39;12.90;99.10
21033;DHT22;10675;47.976;7.824;2022-12-29T15:54:06;12.90;99.40
21033;DHT22;10675;47.976;7.824;2022-12-29T15:56:37;12.80;99.90
21033;DHT22;10675;47.976;7.824;2022-12-29T15:59:03;12.70;99.90
21033;DHT22;10675;47.976;7.824;2022-12-29T16:01:33;12.70;99.90
21033;DHT22;10675;47.976;7.824;2022-12-29T16:04:03;12.60;99.90
21033;DHT22;10675;47.976;7.824;2022-12-29T16:06:37;12.60;99.90
21033;DHT22;10675;47.976;7.824;2022-12-29T16:11:36;12.50;99.90
21033;DHT22;10675;47.976;7.824;2022-12-29T16:14:07;12.50;99.90
21033;DHT22;10675;47.976;7.824;2022-12-29T16:16:39;12.50;99.90
21033;DHT22;10675;47.976;7.824;2022-12-29T16:19:26;12.40;99.90
21033;DHT22;10675;47.976;7.824;2022-12-29T16:21:52;12.40;99.90
21033;DHT22;10675;47.976;7.824;2022-12-29T16:24:23;12.50;99.90
21033;DHT22;10675;47.976;7.824;2022-12-29T16:27:09;12.40;99.90
21033;DHT22;10675;47.976;7.824;2022-12-29T16:29:39;12.40;99.90
21033;DHT22;10675;47.976;7.824;2022-12-29T16:32:24;12.40;99.90
21033;DHT22;10675;47.976;7.824;2022-12-29T16:35:01;12.50;99.90
21033;DHT22;10675;47.976;7.824;2022-12-29T16:37:32;12.50;99.90
21033;DHT22;10675;47.976;7.824;2022-12-29T16:48:33;12.60;99.90
21033;DHT22;10675;47.976;7.824;2022-12-29T16:51:06;12.60;99.90
21033;DHT22;10675;47.976;7.824;2022-12-29T16:53:35;12.60;99.90
21033;DHT22;10675;47.976;7.824;2022-12-29T16:56:20;12.50;99.90
21033;DHT22;10675;47.976;7.824;2022-12-29T16:58:48;12.40;99.90
21033;DHT22;10675;47.976;7.824;2022-12-29T17:01:14;12.30;99.90
21033;DHT22;10675;47.976;7.824;2022-12-29T17:03:48;12.20;99.90
21033;DHT22;10675;47.976;7.824;2022-12-29T17:06:19;12.10;99.90
21033;DHT22;10675;47.976;7.824;2022-12-29T17:08:47;12.00;99.90
21033;DHT22;10675;47.976;7.824;2022-12-29T17:11:33;11.90;99.90
21033;DHT22;10675;47.976;7.824;2022-12-29T17:14:46;11.70;99.90
21033;DHT22;10675;47.976;7.824;2022-12-29T17:17:39;11.60;99.90
21033;DHT22;10675;47.976;7.824;2022-12-29T17:22:43;11.40;99.90
21033;DHT22;10675;47.976;7.824;2022-12-29T17:25:34;11.40;99.90
21033;DHT22;10675;47.976;7.824;2022-12-29T17:30:49;11.20;99.90
21033;DHT22;10675;47.976;7.824;2022-12-29T17:33:19;11.20;99.90
21033;DHT22;10675;47.976;7.824;2022-12-29T17:35:45;11.10;99.90
21033;DHT22;10675;47.976;7.824;2022-12-29T17:38:21;11.10;99.90
21033;DHT22;10675;47.976;7.824;2022-12-29T17:40:48;11.00;99.90
21033;DHT22;10675;47.976;7.824;2022-12-29T17:43:14;11.10;99.90
21033;DHT22;10675;47.976;7.824;2022-12-29T17:45:41;11.10;99.90
21033;DHT22;10675;47.976;7.824;2022-12-29T17:48:17;11.20;99.90
21033;DHT22;10675;47.976;7.824;2022-12-29T17:50:44;11.20;99.90
21033;DHT22;10675;47.976;7.824;2022-12-29T17:53:14;11.20;99.90
21033;DHT22;10675;47.976;7.824;2022-12-29T17:55:39;11.30;99.90
21033;DHT22;10675;47.976;7.824;2022-12-29T17:58:20;11.30;99.90
21033;DHT22;10675;47.976;7.824;2022-12-29T18:00:48;11.40;99.90
21033;DHT22;10675;47.976;7.824;2022-12-29T18:03:20;11.40;99.90
21033;DHT22;10675;47.976;7.824;2022-12-29T18:05:47;11.60;99.90
21033;DHT22;10675;47.976;7.824;2022-12-29T18:08:14;11.60;99.90
21033;DHT22;10675;47.976;7.824;2022-12-29T18:10:40;11.70;99.90
21033;DHT22;10675;47.976;7.824;2022-12-29T18:13:06;11.70;99.90
21033;DHT22;10675;47.976;7.824;2022-12-29T18:15:34;11.80;99.90
21033;DHT22;10675;47.976;7.824;2022-12-29T18:18:11;11.80;99.90
21033;DHT22;10675;47.976;7.824;2022-12-29T18:20:37;11.70;99.90
21033;DHT22;10675;47.976;7.824;2022-12-29T18:23:05;11.80;99.90
21033;DHT22;10675;47.976;7.824;2022-12-29T18:25:52;11.90;99.90
21033;DHT22;10675;47.976;7.824;2022-12-29T18:28:18;12.00;99.90
21033;DHT22;10675;47.976;7.824;2022-12-29T18:30:44;12.00;99.90